Time;durP1;ratioP1;P1;durP2;ratioP2;P2;SDS_P1;SDS_P2;PMS_P1;PMS_P2;Temp;Humidity;BMP_temperature;BMP_pressure;BME280_temperature;BME280_humidity;BME280_pressure;Samples;Min_cycle;Max_cycle;Signal;HPM_P1;HPM_P2
2023/09/28 00:01:18;;;;;;;10.48;9.98;;;;;;;;;;5093080;28;20024;-67
2023/09/28 00:03:44;;;;;;;10.93;10.43;;;;;;;;;;5087857;28;20024;-68
2023/09/28 00:06:10;;;;;;;11.00;10.50;;;;;;;;;;5085625;28;20031;-68
2023/09/28 00:08:35;;;;;;;10.83;10.33;;;;;;;;;;5077958;28;20020;-68
2023/09/28 00:11:00;;;;;;;10.88;10.38;;;;;;;;;;5081414;28;20288;-70
2023/09/28 00:13:26;;;;;;;11.23;10.73;;;;;;;;;;5071988;28;20023;-69
2023/09/28 00:15:51;;;;;;;11.20;10.70;;;;;;;;;;5069233;28;20100;-70
2023/09/28 00:18:17;;;;;;;11.10;10.60;;;;;;;;;;5079678;28;20014;-68
2023/09/28 00:20:42;;;;;;;11.20;10.70;;;;;;;;;;5089835;28;20051;-69
2023/09/28 00:23:08;;;;;;;11.27;10.77;;;;;;;;;;5092419;28;20058;-68
2023/09/28 00:25:33;;;;;;;10.93;10.43;;;;;;;;;;5083628;28;20475;-69
2023/09/28 00:27:58;;;;;;;10.93;10.43;;;;;;;;;;5080484;28;20039;-70
2023/09/28 00:30:26;;;;;;;10.80;10.30;;;;;;;;;;5085024;28;20035;-69
2023/09/28 00:32:55;;;;;;;11.00;10.50;;;;;;;;;;5066688;28;20012;-69
2023/09/28 00:35:20;;;;;;;10.98;10.48;;;;;;;;;;5082511;28;20797;-70
2023/09/28 00:37:49;;;;;;;11.43;10.93;;;;;;;;;;5087901;28;20020;-68
2023/09/28 00:40:27;;;;;;;11.07;10.57;;;;;;;;;;5088432;28;20079;-69
2023/09/28 00:42:53;;;;;;;11.02;10.52;;;;;;;;;;5064878;28;20046;-69
2023/09/28 00:45:20;;;;;;;10.70;10.20;;;;;;;;;;5087332;28;20024;-69
2023/09/28 00:47:48;;;;;;;10.63;10.13;;;;;;;;;;5086274;28;20020;-70
2023/09/28 00:50:17;;;;;;;10.88;10.38;;;;;;;;;;5084789;28;20107;-68
2023/09/28 00:52:43;;;;;;;10.75;10.25;;;;;;;;;;5084910;28;20017;-69
2023/09/28 00:55:09;;;;;;;10.70;10.20;;;;;;;;;;5084068;28;20108;-69
2023/09/28 00:57:38;;;;;;;10.90;10.40;;;;;;;;;;5067672;28;20102;-69
2023/09/28 01:00:46;;;;;;;10.98;10.48;;;;;;;;;;5081911;28;20051;-69
2023/09/28 01:02:53;;;;;;;11.10;10.60;;;;;;;;;;5075882;28;20055;-68
2023/09/28 01:05:19;;;;;;;10.98;10.48;;;;;;;;;;5082337;28;20075;-68
2023/09/28 01:07:44;;;;;;;10.82;10.32;;;;;;;;;;5093873;28;20046;-68
2023/09/28 01:10:12;;;;;;;10.77;10.27;;;;;;;;;;5085332;28;20023;-69
2023/09/28 01:12:41;;;;;;;10.93;10.43;;;;;;;;;;5082085;28;20026;-68
2023/09/28 01:15:10;;;;;;;11.50;11.00;;;;;;;;;;5087851;28;20027;-69
2023/09/28 01:17:36;;;;;;;11.00;10.50;;;;;;;;;;5081402;28;20384;-69
2023/09/28 01:20:03;;;;;;;10.68;10.18;;;;;;;;;;5088407;28;20390;-69
2023/09/28 01:22:30;;;;;;;10.70;10.20;;;;;;;;;;5086125;28;20020;-69
2023/09/28 01:24:55;;;;;;;10.80;10.30;;;;;;;;;;5087678;28;20542;-69
2023/09/28 01:27:21;;;;;;;10.98;10.48;;;;;;;;;;5086180;28;20024;-69
2023/09/28 01:29:46;;;;;;;11.05;10.55;;;;;;;;;;5084173;28;20530;-69
2023/09/28 01:32:11;;;;;;;10.82;10.32;;;;;;;;;;5085208;28;20028;-69
2023/09/28 01:34:36;;;;;;;11.70;11.20;;;;;;;;;;5082916;28;20124;-69
2023/09/28 01:37:02;;;;;;;11.10;10.60;;;;;;;;;;5085144;28;20023;-69
2023/09/28 01:39:28;;;;;;;10.68;10.18;;;;;;;;;;5090055;28;20253;-68
2023/09/28 01:41:53;;;;;;;11.30;10.80;;;;;;;;;;5080049;28;20069;-68
2023/09/28 01:44:18;;;;;;;10.73;10.23;;;;;;;;;;5089509;28;20024;-68
2023/09/28 01:46:44;;;;;;;10.75;10.25;;;;;;;;;;5090267;28;20388;-69
2023/09/28 01:49:09;;;;;;;10.90;10.40;;;;;;;;;;5063156;28;20032;-70
2023/09/28 01:51:34;;;;;;;11.00;10.50;;;;;;;;;;5084447;28;20016;-69
2023/09/28 01:53:59;;;;;;;10.68;10.18;;;;;;;;;;5082749;28;20052;-69
2023/09/28 01:56:25;;;;;;;10.80;10.30;;;;;;;;;;5067004;28;20016;-69
2023/09/28 01:58:50;;;;;;;11.23;10.73;;;;;;;;;;5082583;28;20024;-68
2023/09/28 02:01:22;;;;;;;11.10;10.60;;;;;;;;;;5086047;28;20095;-68
2023/09/28 02:03:47;;;;;;;10.70;10.20;;;;;;;;;;5094583;28;20016;-70
2023/09/28 02:06:14;;;;;;;10.52;10.02;;;;;;;;;;5088562;28;20017;-67
2023/09/28 02:08:40;;;;;;;11.00;10.50;;;;;;;;;;5086190;28;20016;-68
2023/09/28 02:11:05;;;;;;;10.93;10.43;;;;;;;;;;5085340;28;20016;-68
2023/09/28 02:13:31;;;;;;;10.90;10.40;;;;;;;;;;5087962;28;20047;-68
2023/09/28 02:15:56;;;;;;;10.93;10.43;;;;;;;;;;5074201;28;20012;-68
2023/09/28 02:18:21;;;;;;;11.20;10.70;;;;;;;;;;5083725;28;20356;-68
2023/09/28 02:20:46;;;;;;;11.20;10.70;;;;;;;;;;5085862;28;20052;-68
2023/09/28 02:23:13;;;;;;;11.20;10.70;;;;;;;;;;5085034;28;20027;-68
2023/09/28 02:25:38;;;;;;;10.93;10.43;;;;;;;;;;5073837;28;20035;-68
2023/09/28 02:28:04;;;;;;;11.48;10.98;;;;;;;;;;5085674;28;20028;-69
2023/09/28 02:30:29;;;;;;;11.43;10.93;;;;;;;;;;5080881;28;20173;-68
2023/09/28 02:32:57;;;;;;;11.23;10.73;;;;;;;;;;5087792;28;20076;-69
2023/09/28 02:35:23;;;;;;;11.10;10.60;;;;;;;;;;5087479;28;20016;-69
2023/09/28 02:37:51;;;;;;;11.02;10.52;;;;;;;;;;5082795;28;20031;-69
2023/09/28 02:40:17;;;;;;;11.18;10.68;;;;;;;;;;5087742;28;20085;-68
2023/09/28 02:42:44;;;;;;;11.00;10.50;;;;;;;;;;5084908;28;20019;-69
2023/09/28 02:45:12;;;;;;;11.52;11.02;;;;;;;;;;5082961;28;20030;-70
2023/09/28 02:47:41;;;;;;;11.48;10.98;;;;;;;;;;5081548;28;20066;-69
2023/09/28 02:50:07;;;;;;;10.95;10.45;;;;;;;;;;5072148;28;20031;-68
2023/09/28 02:52:33;;;;;;;11.10;10.60;;;;;;;;;;5083278;28;20092;-68
2023/09/28 02:54:58;;;;;;;11.07;10.57;;;;;;;;;;5091701;28;20535;-67
2023/09/28 02:57:24;;;;;;;11.30;10.80;;;;;;;;;;5087040;28;20012;-67
2023/09/28 02:59:49;;;;;;;11.10;10.60;;;;;;;;;;5090467;28;20027;-67
2023/09/28 03:02:14;;;;;;;11.73;11.23;;;;;;;;;;5088272;28;20047;-67
2023/09/28 03:04:40;;;;;;;10.93;10.43;;;;;;;;;;5076235;28;20131;-68
2023/09/28 03:07:05;;;;;;;11.00;10.50;;;;;;;;;;5101574;28;20121;-68
2023/09/28 03:09:32;;;;;;;10.68;10.18;;;;;;;;;;5106743;28;20397;-68
2023/09/28 03:11:57;;;;;;;11.50;11.00;;;;;;;;;;5113297;28;20012;-67
2023/09/28 03:14:25;;;;;;;10.70;10.20;;;;;;;;;;5105815;28;20489;-68
2023/09/28 03:16:50;;;;;;;10.85;10.35;;;;;;;;;;5109657;28;20038;-68
2023/09/28 03:19:15;;;;;;;10.95;10.45;;;;;;;;;;5107681;28;20023;-68
2023/09/28 03:21:41;;;;;;;10.98;10.48;;;;;;;;;;5104411;28;20099;-67
2023/09/28 03:24:08;;;;;;;11.00;10.50;;;;;;;;;;5105305;28;20439;-69
2023/09/28 03:26:33;;;;;;;11.00;10.50;;;;;;;;;;5100635;28;20008;-68
2023/09/28 03:28:59;;;;;;;11.48;10.98;;;;;;;;;;5109073;28;20039;-69
2023/09/28 03:31:29;;;;;;;11.13;10.63;;;;;;;;;;5113074;27;20061;-67
2023/09/28 03:33:54;;;;;;;10.73;10.23;;;;;;;;;;5109471;28;20394;-69
2023/09/28 03:36:20;;;;;;;10.80;10.30;;;;;;;;;;5107960;28;20031;-69
2023/09/28 03:38:46;;;;;;;10.98;10.48;;;;;;;;;;5108432;28;20439;-68
2023/09/28 03:41:12;;;;;;;10.93;10.43;;;;;;;;;;5107464;28;20018;-68
2023/09/28 03:43:37;;;;;;;10.95;10.45;;;;;;;;;;5104838;28;20019;-69
2023/09/28 03:46:02;;;;;;;11.23;10.73;;;;;;;;;;5102338;28;20024;-69
2023/09/28 03:48:27;;;;;;;11.43;10.93;;;;;;;;;;5108711;28;20148;-69
2023/09/28 03:50:53;;;;;;;11.10;10.60;;;;;;;;;;5108682;28;20481;-69
2023/09/28 03:53:18;;;;;;;11.48;10.98;;;;;;;;;;5107078;27;20020;-70
2023/09/28 03:55:47;;;;;;;11.20;10.70;;;;;;;;;;5105978;28;20471;-68
2023/09/28 03:58:12;;;;;;;11.45;10.95;;;;;;;;;;5104186;28;20069;-68
2023/09/28 04:00:38;;;;;;;11.10;10.60;;;;;;;;;;5088159;28;20023;-67
2023/09/28 04:03:03;;;;;;;11.02;10.52;;;;;;;;;;5105415;27;20486;-69
2023/09/28 04:05:28;;;;;;;11.00;10.50;;;;;;;;;;5092364;28;20179;-69
2023/09/28 04:07:54;;;;;;;11.27;10.77;;;;;;;;;;5072485;28;20498;-69
2023/09/28 04:10:20;;;;;;;11.93;11.32;;;;;;;;;;5086812;28;20043;-68
2023/09/28 04:12:47;;;;;;;11.05;10.55;;;;;;;;;;5089340;28;20040;-68
2023/09/28 04:15:13;;;;;;;11.07;10.57;;;;;;;;;;5072404;28;20021;-69
2023/09/28 04:17:38;;;;;;;10.73;10.23;;;;;;;;;;5089171;28;20107;-69
2023/09/28 04:20:09;;;;;;;11.20;10.70;;;;;;;;;;5085309;28;20028;-68
2023/09/28 04:22:34;;;;;;;10.98;10.48;;;;;;;;;;5085714;28;20480;-69
2023/09/28 04:25:00;;;;;;;11.43;10.93;;;;;;;;;;5084437;28;20051;-69
2023/09/28 04:27:25;;;;;;;11.20;10.70;;;;;;;;;;5086878;28;20024;-66
2023/09/28 04:29:51;;;;;;;11.73;11.18;;;;;;;;;;5081870;28;20016;-70
2023/09/28 04:32:16;;;;;;;12.13;11.52;;;;;;;;;;5066950;28;20016;-61
2023/09/28 04:34:41;;;;;;;11.40;10.90;;;;;;;;;;5070970;28;20119;-63
2023/09/28 04:37:07;;;;;;;11.05;10.55;;;;;;;;;;5069136;28;20020;-63
2023/09/28 04:39:34;;;;;;;11.25;10.75;;;;;;;;;;5089198;28;20020;-62
2023/09/28 04:41:59;;;;;;;11.20;10.70;;;;;;;;;;5088652;28;20024;-63
2023/09/28 04:44:24;;;;;;;11.38;10.88;;;;;;;;;;5088139;28;20081;-63
2023/09/28 04:46:50;;;;;;;11.30;10.80;;;;;;;;;;5088963;28;20396;-63
2023/09/28 04:49:18;;;;;;;11.38;10.88;;;;;;;;;;5090475;28;20494;-63
2023/09/28 04:51:43;;;;;;;11.70;11.20;;;;;;;;;;5086739;28;20021;-63
2023/09/28 04:54:09;;;;;;;11.07;10.57;;;;;;;;;;5081457;28;20037;-63
2023/09/28 04:56:34;;;;;;;11.23;10.73;;;;;;;;;;5087167;28;20023;-62
2023/09/28 04:59:00;;;;;;;11.23;10.73;;;;;;;;;;5082413;28;20023;-62
2023/09/28 05:01:25;;;;;;;11.75;11.23;;;;;;;;;;5083844;28;20024;-62
2023/09/28 05:03:51;;;;;;;11.18;10.68;;;;;;;;;;5085177;28;20099;-63
2023/09/28 05:06:16;;;;;;;12.48;11.88;;;;;;;;;;5083376;28;20028;-63
2023/09/28 05:08:42;;;;;;;11.52;11.02;;;;;;;;;;5077260;28;20024;-61
2023/09/28 05:11:07;;;;;;;11.05;10.55;;;;;;;;;;5076096;28;20102;-61
2023/09/28 05:13:32;;;;;;;11.70;11.20;;;;;;;;;;5078079;28;20464;-61
2023/09/28 05:15:58;;;;;;;11.48;10.98;;;;;;;;;;5080566;28;20139;-60
2023/09/28 05:18:23;;;;;;;11.60;11.10;;;;;;;;;;5081341;28;20021;-61
2023/09/28 05:20:48;;;;;;;12.02;11.43;;;;;;;;;;5076754;28;20043;-60
2023/09/28 05:23:14;;;;;;;11.70;11.20;;;;;;;;;;5078790;28;20020;-61
2023/09/28 05:25:39;;;;;;;12.38;11.77;;;;;;;;;;5078039;28;20231;-61
2023/09/28 05:28:04;;;;;;;12.35;11.75;;;;;;;;;;5077218;28;20392;-60
2023/09/28 05:30:30;;;;;;;11.82;11.32;;;;;;;;;;5080894;28;20036;-62
2023/09/28 05:32:55;;;;;;;11.00;10.50;;;;;;;;;;5077646;28;20024;-62
2023/09/28 05:35:21;;;;;;;11.57;11.07;;;;;;;;;;5076380;28;20163;-61
2023/09/28 05:37:47;;;;;;;12.93;12.32;;;;;;;;;;5075490;28;20073;-60
2023/09/28 05:40:12;;;;;;;12.80;12.20;;;;;;;;;;5073173;28;20028;-62
2023/09/28 05:42:38;;;;;;;12.05;11.48;;;;;;;;;;5079396;28;20027;-62
2023/09/28 05:45:04;;;;;;;11.77;11.27;;;;;;;;;;5079960;28;20129;-60
2023/09/28 05:47:29;;;;;;;12.70;12.10;;;;;;;;;;5080306;28;20099;-62
2023/09/28 05:49:55;;;;;;;13.18;12.57;;;;;;;;;;5082907;28;20154;-62
2023/09/28 05:52:20;;;;;;;12.25;11.65;;;;;;;;;;5077444;28;20051;-63
2023/09/28 05:54:46;;;;;;;11.55;11.05;;;;;;;;;;5081238;28;20016;-60
2023/09/28 05:57:12;;;;;;;12.43;11.82;;;;;;;;;;5084921;28;20094;-62
2023/09/28 05:59:38;;;;;;;12.35;11.75;;;;;;;;;;5087183;28;20395;-62
2023/09/28 06:02:03;;;;;;;12.02;11.52;;;;;;;;;;5085866;28;20020;-61
2023/09/28 06:04:29;;;;;;;11.52;11.02;;;;;;;;;;5089167;27;20169;-62
2023/09/28 06:06:56;;;;;;;11.35;10.85;;;;;;;;;;5102790;27;20239;-62
2023/09/28 06:09:21;;;;;;;11.77;11.27;;;;;;;;;;5104771;27;20406;-63
2023/09/28 06:11:48;;;;;;;11.75;11.25;;;;;;;;;;5101070;27;20077;-63
2023/09/28 06:14:15;;;;;;;12.10;11.60;;;;;;;;;;5101927;27;20023;-63
2023/09/28 06:16:42;;;;;;;12.10;11.60;;;;;;;;;;5105870;27;20083;-64
2023/09/28 06:19:07;;;;;;;12.18;11.68;;;;;;;;;;5084143;28;21633;-62
2023/09/28 06:21:32;;;;;;;12.00;11.50;;;;;;;;;;5103343;27;20019;-61
2023/09/28 06:23:58;;;;;;;12.38;11.80;;;;;;;;;;5103563;27;20023;-62
2023/09/28 06:26:24;;;;;;;12.60;12.00;;;;;;;;;;5102267;27;20024;-66
2023/09/28 06:28:49;;;;;;;12.18;11.68;;;;;;;;;;5100188;27;20394;-63
2023/09/28 06:31:17;;;;;;;12.18;11.68;;;;;;;;;;5102936;27;20055;-63
2023/09/28 06:33:42;;;;;;;12.20;11.70;;;;;;;;;;5097280;27;20031;-61
2023/09/28 06:36:07;;;;;;;12.07;11.57;;;;;;;;;;5105163;27;20020;-62
2023/09/28 06:38:33;;;;;;;12.52;11.93;;;;;;;;;;5103995;28;20491;-63
2023/09/28 06:40:58;;;;;;;11.97;11.47;;;;;;;;;;5083365;28;20051;-63
2023/09/28 06:43:23;;;;;;;12.05;11.55;;;;;;;;;;5112211;27;20271;-65
2023/09/28 06:45:49;;;;;;;12.13;11.63;;;;;;;;;;5105145;27;20035;-62
2023/09/28 06:48:14;;;;;;;12.07;11.57;;;;;;;;;;5106548;27;20031;-62
2023/09/28 06:50:39;;;;;;;12.03;11.53;;;;;;;;;;5105463;27;21106;-62
2023/09/28 06:53:06;;;;;;;11.98;11.48;;;;;;;;;;5104282;27;20268;-61
2023/09/28 06:55:31;;;;;;;12.10;11.60;;;;;;;;;;5102876;27;20186;-61
2023/09/28 06:57:57;;;;;;;12.53;11.93;;;;;;;;;;5097707;27;20479;-63
2023/09/28 07:00:23;;;;;;;12.32;11.82;;;;;;;;;;5099867;27;20684;-65
2023/09/28 07:02:48;;;;;;;12.27;11.77;;;;;;;;;;5103884;27;20058;-64
2023/09/28 07:05:14;;;;;;;12.25;11.75;;;;;;;;;;5104913;27;20063;-64
2023/09/28 07:07:41;;;;;;;12.13;11.63;;;;;;;;;;5100729;27;20028;-63
2023/09/28 07:10:06;;;;;;;11.75;11.25;;;;;;;;;;5105701;27;20051;-66
2023/09/28 07:12:31;;;;;;;11.95;11.45;;;;;;;;;;5105608;27;20521;-63
2023/09/28 07:14:57;;;;;;;11.90;11.40;;;;;;;;;;5088427;28;20120;-66
2023/09/28 07:17:22;;;;;;;11.90;11.40;;;;;;;;;;5089029;28;20271;-62
2023/09/28 07:19:48;;;;;;;12.07;11.57;;;;;;;;;;5102684;27;20271;-64
2023/09/28 07:22:15;;;;;;;12.00;11.50;;;;;;;;;;5103182;27;20115;-64
2023/09/28 07:24:40;;;;;;;11.77;11.27;;;;;;;;;;5101338;27;20035;-63
2023/09/28 07:27:06;;;;;;;12.07;11.57;;;;;;;;;;5101461;27;20153;-64
2023/09/28 07:29:31;;;;;;;12.48;11.90;;;;;;;;;;5100752;27;20087;-63
2023/09/28 07:31:56;;;;;;;12.20;11.70;;;;;;;;;;5099789;27;20102;-63
2023/09/28 07:34:21;;;;;;;11.98;11.48;;;;;;;;;;5099614;27;20272;-64
2023/09/28 07:36:47;;;;;;;12.25;11.75;;;;;;;;;;5100197;27;20107;-65
2023/09/28 07:39:13;;;;;;;12.20;11.70;;;;;;;;;;5103205;27;20016;-64
2023/09/28 07:41:39;;;;;;;12.13;11.63;;;;;;;;;;5099589;27;20028;-64
2023/09/28 07:44:04;;;;;;;12.10;11.60;;;;;;;;;;5100630;27;20024;-64
2023/09/28 07:46:29;;;;;;;12.02;11.52;;;;;;;;;;5102628;27;20387;-64
2023/09/28 07:48:56;;;;;;;12.20;11.70;;;;;;;;;;5098090;28;20034;-64
2023/09/28 07:51:21;;;;;;;12.25;11.75;;;;;;;;;;5096382;27;20111;-63
2023/09/28 07:53:47;;;;;;;12.38;11.85;;;;;;;;;;5101708;27;20102;-65
2023/09/28 07:56:12;;;;;;;12.30;11.80;;;;;;;;;;5100890;27;20027;-64
2023/09/28 07:58:37;;;;;;;12.17;11.67;;;;;;;;;;5103612;27;20259;-65
2023/09/28 08:01:03;;;;;;;12.32;11.82;;;;;;;;;;5102225;27;20287;-62
2023/09/28 08:03:29;;;;;;;12.10;11.60;;;;;;;;;;5102997;27;20095;-62
2023/09/28 08:05:54;;;;;;;12.25;11.75;;;;;;;;;;5108244;27;20052;-64
2023/09/28 08:08:19;;;;;;;12.18;11.68;;;;;;;;;;5105492;27;20164;-63
2023/09/28 08:10:45;;;;;;;12.48;11.90;;;;;;;;;;5101523;27;20032;-65
2023/09/28 08:13:10;;;;;;;12.60;12.00;;;;;;;;;;5102248;28;20041;-64
2023/09/28 08:15:35;;;;;;;12.10;11.60;;;;;;;;;;5103593;27;20072;-63
2023/09/28 08:18:02;;;;;;;12.02;11.52;;;;;;;;;;5104454;27;20030;-64
2023/09/28 08:20:27;;;;;;;12.10;11.60;;;;;;;;;;5104160;27;20454;-63
2023/09/28 08:22:52;;;;;;;11.97;11.47;;;;;;;;;;5102354;27;20032;-64
2023/09/28 08:25:18;;;;;;;11.83;11.33;;;;;;;;;;5102271;27;20351;-64
2023/09/28 08:27:43;;;;;;;11.85;11.35;;;;;;;;;;5104988;27;20264;-64
2023/09/28 08:30:10;;;;;;;11.87;11.37;;;;;;;;;;5107165;27;20027;-65
2023/09/28 08:32:35;;;;;;;11.90;11.40;;;;;;;;;;5086318;27;20288;-64
2023/09/28 08:35:00;;;;;;;11.85;11.35;;;;;;;;;;5108224;27;20031;-63
2023/09/28 08:37:26;;;;;;;11.85;11.35;;;;;;;;;;5105767;27;20024;-63
2023/09/28 08:39:51;;;;;;;11.80;11.30;;;;;;;;;;5105485;27;20032;-62
2023/09/28 08:42:23;;;;;;;12.00;11.50;;;;;;;;;;5099745;28;20024;-63
2023/09/28 08:44:49;;;;;;;11.90;11.40;;;;;;;;;;5106023;27;20045;-64
2023/09/28 08:47:18;;;;;;;12.05;11.55;;;;;;;;;;5087703;28;20019;-64
2023/09/28 08:49:48;;;;;;;12.20;11.70;;;;;;;;;;5105140;27;20034;-63
2023/09/28 08:52:14;;;;;;;12.30;11.80;;;;;;;;;;5103871;27;20008;-63
2023/09/28 08:54:39;;;;;;;11.93;11.43;;;;;;;;;;5097738;27;20027;-65
2023/09/28 08:57:05;;;;;;;11.90;11.40;;;;;;;;;;5111094;27;20020;-63
2023/09/28 08:59:30;;;;;;;12.18;11.68;;;;;;;;;;5104171;27;20148;-64
2023/09/28 09:01:57;;;;;;;12.20;11.70;;;;;;;;;;5105235;27;20433;-63
2023/09/28 09:04:24;;;;;;;11.88;11.38;;;;;;;;;;5092737;28;20076;-61
2023/09/28 09:06:49;;;;;;;12.10;11.60;;;;;;;;;;5078958;28;20480;-61
2023/09/28 09:09:17;;;;;;;11.95;11.45;;;;;;;;;;5066023;28;20020;-61
2023/09/28 09:11:52;;;;;;;12.00;11.50;;;;;;;;;;5082792;28;20024;-61
2023/09/28 09:14:18;;;;;;;12.32;11.82;;;;;;;;;;5089327;28;20057;-59
2023/09/28 09:16:43;;;;;;;12.40;11.80;;;;;;;;;;5087610;28;20012;-60
2023/09/28 09:19:12;;;;;;;12.15;11.65;;;;;;;;;;5070559;28;20025;-60
2023/09/28 09:21:44;;;;;;;11.90;11.40;;;;;;;;;;5082828;28;20056;-60
2023/09/28 09:24:10;;;;;;;11.88;11.38;;;;;;;;;;5094910;28;20027;-60
2023/09/28 09:26:43;;;;;;;11.82;11.32;;;;;;;;;;5069357;28;20037;-60
2023/09/28 09:29:09;;;;;;;11.60;11.10;;;;;;;;;;5092565;28;20024;-60
2023/09/28 09:31:44;;;;;;;11.90;11.40;;;;;;;;;;5086985;28;20035;-60
2023/09/28 09:34:11;;;;;;;11.60;11.10;;;;;;;;;;5082878;28;20023;-64
2023/09/28 09:36:37;;;;;;;11.38;10.88;;;;;;;;;;5080172;28;20028;-63
2023/09/28 09:39:02;;;;;;;11.80;11.30;;;;;;;;;;5065478;28;20115;-62
2023/09/28 09:41:28;;;;;;;11.80;11.30;;;;;;;;;;5081260;28;20036;-63
2023/09/28 09:43:54;;;;;;;12.10;11.60;;;;;;;;;;5082290;28;20028;-62
2023/09/28 09:46:19;;;;;;;12.20;11.70;;;;;;;;;;5076142;28;20482;-62
2023/09/28 09:48:46;;;;;;;11.85;11.35;;;;;;;;;;5088984;28;20381;-62
2023/09/28 09:51:15;;;;;;;11.85;11.35;;;;;;;;;;5076967;28;20113;-65
2023/09/28 09:53:44;;;;;;;11.93;11.43;;;;;;;;;;5085488;28;20027;-64
2023/09/28 09:56:10;;;;;;;12.05;11.55;;;;;;;;;;5083040;28;20091;-64
2023/09/28 09:58:48;;;;;;;12.02;11.52;;;;;;;;;;5090178;28;20161;-64
2023/09/28 10:01:14;;;;;;;11.43;10.93;;;;;;;;;;5087258;28;20054;-62
2023/09/28 10:03:45;;;;;;;11.60;11.10;;;;;;;;;;5085546;28;20472;-63
2023/09/28 10:06:11;;;;;;;11.88;11.38;;;;;;;;;;5107536;27;20130;-65
2023/09/28 10:08:38;;;;;;;11.70;11.20;;;;;;;;;;5102358;28;20028;-63
2023/09/28 10:11:04;;;;;;;11.70;11.20;;;;;;;;;;5101532;27;20027;-62
2023/09/28 10:13:31;;;;;;;12.05;11.55;;;;;;;;;;5110713;27;20112;-63
2023/09/28 10:15:59;;;;;;;11.52;11.02;;;;;;;;;;5104360;27;20023;-62
2023/09/28 10:18:25;;;;;;;12.02;11.52;;;;;;;;;;5109845;27;20402;-62
2023/09/28 10:20:50;;;;;;;11.80;11.30;;;;;;;;;;5105318;27;20022;-63
2023/09/28 10:23:23;;;;;;;11.88;11.38;;;;;;;;;;5107217;27;20035;-61
2023/09/28 10:26:11;;;;;;;12.10;11.60;;;;;;;;;;5100513;28;20036;-61
2023/09/28 10:28:57;;;;;;;11.73;11.23;;;;;;;;;;5095233;28;20445;-61
2023/09/28 10:31:22;;;;;;;12.00;11.50;;;;;;;;;;5104648;28;20452;-63
2023/09/28 10:34:01;;;;;;;11.60;11.10;;;;;;;;;;5103894;27;20103;-64
2023/09/28 10:36:27;;;;;;;11.55;11.05;;;;;;;;;;5102273;28;20084;-63
2023/09/28 10:39:14;;;;;;;11.70;11.20;;;;;;;;;;5102501;28;20114;-62
2023/09/28 10:41:45;;;;;;;11.80;11.30;;;;;;;;;;5102485;28;20208;-62
2023/09/28 10:44:12;;;;;;;11.77;11.27;;;;;;;;;;5103496;28;20024;-63
2023/09/28 10:46:43;;;;;;;11.75;11.25;;;;;;;;;;5107644;28;20020;-62
2023/09/28 10:49:12;;;;;;;12.10;11.60;;;;;;;;;;5100802;28;20027;-62
2023/09/28 10:51:37;;;;;;;11.82;11.32;;;;;;;;;;5103070;27;20028;-65
2023/09/28 10:54:05;;;;;;;11.80;11.30;;;;;;;;;;5101552;28;20026;-63
2023/09/28 10:56:30;;;;;;;12.00;11.50;;;;;;;;;;5101974;27;20015;-62
2023/09/28 10:58:56;;;;;;;11.60;11.10;;;;;;;;;;5106485;27;20505;-62
2023/09/28 11:01:22;;;;;;;11.48;10.98;;;;;;;;;;5101941;28;20106;-62
2023/09/28 11:03:50;;;;;;;11.75;11.25;;;;;;;;;;5104278;28;20740;-63
2023/09/28 11:06:15;;;;;;;12.07;11.57;;;;;;;;;;5101278;27;20031;-64
2023/09/28 11:08:41;;;;;;;11.75;11.25;;;;;;;;;;5099157;27;20027;-63
2023/09/28 11:11:07;;;;;;;12.10;11.60;;;;;;;;;;5085366;28;20044;-62
2023/09/28 11:13:32;;;;;;;12.00;11.50;;;;;;;;;;5104617;27;20019;-63
2023/09/28 11:15:58;;;;;;;11.73;11.23;;;;;;;;;;5102516;28;20043;-63
2023/09/28 11:18:25;;;;;;;12.27;11.77;;;;;;;;;;5102454;28;20050;-62
2023/09/28 11:20:51;;;;;;;11.63;11.13;;;;;;;;;;5103739;28;20042;-62
2023/09/28 11:23:17;;;;;;;11.90;11.40;;;;;;;;;;5108452;27;20027;-62
2023/09/28 11:25:43;;;;;;;12.02;11.52;;;;;;;;;;5101867;27;20020;-63
2023/09/28 11:28:09;;;;;;;11.88;11.38;;;;;;;;;;5109293;27;20024;-62
2023/09/28 11:30:34;;;;;;;11.70;11.20;;;;;;;;;;5106683;28;20110;-61
2023/09/28 11:33:03;;;;;;;11.85;11.35;;;;;;;;;;5100825;27;20114;-63
2023/09/28 11:35:32;;;;;;;11.63;11.13;;;;;;;;;;5098716;28;20088;-63
2023/09/28 11:38:09;;;;;;;11.45;10.95;;;;;;;;;;5100832;27;20049;-62
2023/09/28 11:40:35;;;;;;;12.30;11.80;;;;;;;;;;5104715;27;20078;-63
2023/09/28 11:43:01;;;;;;;11.80;11.30;;;;;;;;;;5103381;27;20051;-63
2023/09/28 11:45:27;;;;;;;11.93;11.43;;;;;;;;;;5097527;28;20128;-63
2023/09/28 11:47:53;;;;;;;11.90;11.40;;;;;;;;;;5097667;27;20023;-63
2023/09/28 11:50:18;;;;;;;12.30;11.80;;;;;;;;;;5106493;27;20395;-63
2023/09/28 11:52:44;;;;;;;12.10;11.60;;;;;;;;;;5098931;27;20024;-62
2023/09/28 11:55:12;;;;;;;11.88;11.38;;;;;;;;;;5104721;27;20391;-63
2023/09/28 11:57:38;;;;;;;11.90;11.40;;;;;;;;;;5100060;28;20030;-62
2023/09/28 12:00:06;;;;;;;11.90;11.40;;;;;;;;;;5090777;28;20023;-63
2023/09/28 12:02:32;;;;;;;12.10;11.60;;;;;;;;;;5101053;27;20023;-64
2023/09/28 12:04:57;;;;;;;11.73;11.23;;;;;;;;;;5106715;28;20047;-62
2023/09/28 12:07:24;;;;;;;11.80;11.30;;;;;;;;;;5103847;27;21367;-64
2023/09/28 12:09:49;;;;;;;11.77;11.27;;;;;;;;;;5089948;28;20101;-64
2023/09/28 12:12:14;;;;;;;11.73;11.23;;;;;;;;;;5106067;28;20471;-64
2023/09/28 12:14:40;;;;;;;11.77;11.27;;;;;;;;;;5104802;28;20110;-65
2023/09/28 12:17:05;;;;;;;11.85;11.35;;;;;;;;;;5102326;27;20394;-63
2023/09/28 12:19:32;;;;;;;11.93;11.43;;;;;;;;;;5101398;28;20027;-62
2023/09/28 12:22:03;;;;;;;12.02;11.52;;;;;;;;;;5103427;27;20076;-62
2023/09/28 12:24:28;;;;;;;12.10;11.60;;;;;;;;;;5102588;27;20111;-61
2023/09/28 12:26:54;;;;;;;11.93;11.43;;;;;;;;;;5101850;28;20118;-63
2023/09/28 12:29:19;;;;;;;12.10;11.60;;;;;;;;;;5104637;28;20040;-61
2023/09/28 12:31:45;;;;;;;11.80;11.30;;;;;;;;;;5081954;28;20028;-62
2023/09/28 12:34:13;;;;;;;11.82;11.32;;;;;;;;;;5104127;28;20031;-62
2023/09/28 12:36:39;;;;;;;11.98;11.48;;;;;;;;;;5107453;27;20098;-64
2023/09/28 12:39:04;;;;;;;11.90;11.40;;;;;;;;;;5104164;28;20441;-64
2023/09/28 12:41:30;;;;;;;11.43;10.93;;;;;;;;;;5102785;28;20436;-63
2023/09/28 12:43:55;;;;;;;11.80;11.30;;;;;;;;;;5104217;27;20030;-65
2023/09/28 12:46:21;;;;;;;11.88;11.38;;;;;;;;;;5103756;27;20031;-67
2023/09/28 12:48:46;;;;;;;11.57;11.07;;;;;;;;;;5104973;27;20103;-65
2023/09/28 12:51:12;;;;;;;12.00;11.50;;;;;;;;;;5105214;28;20055;-64
2023/09/28 12:53:39;;;;;;;12.10;11.60;;;;;;;;;;5101461;27;25557;-64
2023/09/28 12:56:04;;;;;;;11.38;10.88;;;;;;;;;;5104789;28;20016;-62
2023/09/28 12:58:29;;;;;;;11.88;11.38;;;;;;;;;;5099751;28;20073;-63
2023/09/28 13:00:55;;;;;;;11.93;11.43;;;;;;;;;;5093309;28;20419;-63
2023/09/28 13:03:20;;;;;;;11.80;11.30;;;;;;;;;;5096736;28;20114;-64
2023/09/28 13:05:46;;;;;;;11.60;11.10;;;;;;;;;;5103700;28;20078;-62
2023/09/28 13:08:11;;;;;;;12.10;11.60;;;;;;;;;;5102601;28;20027;-62
2023/09/28 13:10:38;;;;;;;11.85;11.35;;;;;;;;;;5100340;28;20023;-62
2023/09/28 13:13:05;;;;;;;11.90;11.40;;;;;;;;;;5093380;28;21049;-63
2023/09/28 13:15:31;;;;;;;12.10;11.60;;;;;;;;;;5096551;28;20024;-63
2023/09/28 13:17:57;;;;;;;11.73;11.23;;;;;;;;;;5101747;28;20061;-62
2023/09/28 13:20:27;;;;;;;13.10;12.50;;;;;;;;;;5097001;28;21043;-61
2023/09/28 13:22:55;;;;;;;12.43;11.88;;;;;;;;;;5098401;28;20042;-63
2023/09/28 13:25:22;;;;;;;11.95;11.45;;;;;;;;;;5098172;28;20023;-63
2023/09/28 13:27:48;;;;;;;11.82;11.32;;;;;;;;;;5098911;28;20047;-63
2023/09/28 13:30:13;;;;;;;12.60;12.00;;;;;;;;;;5102792;28;20067;-63
2023/09/28 13:32:39;;;;;;;11.60;11.10;;;;;;;;;;5098136;28;20096;-62
2023/09/28 13:35:10;;;;;;;11.93;11.43;;;;;;;;;;5095393;28;20020;-63
2023/09/28 13:37:36;;;;;;;11.90;11.40;;;;;;;;;;5095805;28;20088;-64
2023/09/28 13:40:01;;;;;;;11.40;10.90;;;;;;;;;;5103847;28;20479;-64
2023/09/28 13:42:27;;;;;;;11.55;11.05;;;;;;;;;;5102186;28;20119;-62
2023/09/28 13:44:52;;;;;;;12.45;11.88;;;;;;;;;;5104271;28;20028;-64
2023/09/28 13:47:18;;;;;;;11.73;11.23;;;;;;;;;;5102357;28;20085;-65
2023/09/28 13:49:43;;;;;;;12.10;11.60;;;;;;;;;;5100743;28;20487;-64
2023/09/28 13:52:09;;;;;;;11.77;11.27;;;;;;;;;;5102794;28;20015;-65
2023/09/28 13:54:34;;;;;;;11.90;11.40;;;;;;;;;;5102111;28;20111;-62
2023/09/28 13:57:07;;;;;;;12.00;11.50;;;;;;;;;;5102238;28;20106;-62
2023/09/28 13:59:33;;;;;;;11.50;11.00;;;;;;;;;;5106398;28;20020;-62
2023/09/28 14:01:58;;;;;;;12.10;11.60;;;;;;;;;;5083013;28;20035;-63
2023/09/28 14:04:24;;;;;;;12.07;11.57;;;;;;;;;;5102121;27;20126;-63
2023/09/28 14:06:49;;;;;;;12.00;11.50;;;;;;;;;;5100780;27;20108;-63
2023/09/28 14:09:18;;;;;;;11.65;11.15;;;;;;;;;;5107364;27;20027;-63
2023/09/28 14:11:45;;;;;;;11.82;11.32;;;;;;;;;;5110180;28;20023;-63